createdAt,value
2022-10-14T00:02:44.488Z,86.37
2022-10-14T00:05:46.917Z,88.12
2022-10-14T00:08:51.269Z,88.35
2022-10-14T00:11:53.622Z,88.70
2022-10-14T00:14:56.341Z,90.15
2022-10-14T00:17:58.735Z,90.30
2022-10-14T00:21:02.348Z,89.14
2022-10-14T00:24:07.349Z,89.50
2022-10-14T00:27:09.775Z,88.24
2022-10-14T00:30:12.477Z,88.22
2022-10-14T00:33:14.821Z,88.29
2022-10-14T00:36:20.167Z,87.87
2022-10-14T00:39:22.669Z,88.28
2022-10-14T00:42:26.268Z,88.09
2022-10-14T00:45:28.703Z,88.36
2022-10-14T00:48:31.023Z,88.47
2022-10-14T00:51:34.935Z,88.47
2022-10-14T00:54:40.871Z,88.59
2022-10-14T00:57:43.604Z,88.65
2022-10-14T01:00:46.106Z,88.22
2022-10-14T01:03:49.135Z,88.32
2022-10-14T01:07:08.002Z,87.81
2022-10-14T01:10:33.013Z,88.31
2022-10-14T01:13:38.236Z,88.14
2022-10-14T01:16:52.906Z,88.29
2022-10-14T01:20:07.256Z,87.43
2022-10-14T01:23:23.479Z,87.83
2022-10-14T01:26:34.349Z,88.18
2022-10-14T01:29:48.448Z,88.31
2022-10-14T01:32:53.423Z,88.17
2022-10-14T01:36:26.017Z,88.71
2022-10-14T01:39:32.060Z,88.37
2022-10-14T01:42:39.126Z,87.58
2022-10-14T01:45:43.055Z,88.97
2022-10-14T01:48:51.425Z,88.94
2022-10-14T01:52:00.322Z,88.59
2022-10-14T01:55:06.384Z,88.24
2022-10-14T01:58:11.458Z,87.64
2022-10-14T02:01:15.354Z,87.59
2022-10-14T02:04:22.255Z,87.83
2022-10-14T02:07:31.326Z,87.41
2022-10-14T02:11:01.879Z,87.25
2022-10-14T02:14:26.696Z,87.23
2022-10-14T02:17:42.960Z,86.35
2022-10-14T02:21:07.983Z,86.49
2022-10-14T02:24:23.189Z,85.71
2022-10-14T02:27:28.291Z,86.05
2022-10-14T02:30:33.245Z,85.52
2022-10-14T02:33:41.062Z,86.87
2022-10-14T02:36:45.335Z,86.34
2022-10-14T02:40:12.066Z,85.54
2022-10-14T02:43:14.572Z,86.99
2022-10-14T02:46:21.200Z,85.82
2022-10-14T02:49:24.162Z,84.16
2022-10-14T02:52:27.647Z,85.36
2022-10-14T02:55:30.567Z,85.71
2022-10-14T02:58:33.052Z,85.59
2022-10-14T03:01:37.722Z,85.39
2022-10-14T03:04:42.271Z,85.01
2022-10-14T03:07:45.338Z,84.68
2022-10-14T03:10:50.112Z,85.62
2022-10-14T03:13:52.542Z,85.77
2022-10-14T03:16:56.488Z,85.19
2022-10-14T03:20:00.776Z,86.41
2022-10-14T03:23:03.224Z,86.63
2022-10-14T03:26:13.704Z,87.06
2022-10-14T03:29:19.241Z,86.65
2022-10-14T03:32:37.261Z,86.88
2022-10-14T03:35:58.081Z,86.87
2022-10-14T03:39:14.140Z,87.09
2022-10-14T03:42:24.726Z,86.35
2022-10-14T03:45:28.475Z,87.15
2022-10-14T03:48:31.772Z,86.44
2022-10-14T03:51:34.207Z,86.35
2022-10-14T03:54:44.731Z,86.16
2022-10-14T03:57:50.615Z,85.18
2022-10-14T04:00:56.468Z,85.43
2022-10-14T04:04:16.820Z,84.89
2022-10-14T04:07:20.649Z,84.88
2022-10-14T04:10:31.352Z,85.24
2022-10-14T04:13:37.091Z,85.94
2022-10-14T04:16:40.283Z,85.14
2022-10-14T04:19:47.253Z,85.00
2022-10-14T04:22:52.259Z,85.69
2022-10-14T04:25:56.242Z,84.74
2022-10-14T04:29:00.010Z,85.14
2022-10-14T04:32:16.242Z,84.80
2022-10-14T04:35:18.707Z,83.67
2022-10-14T04:38:27.255Z,83.84
2022-10-14T04:41:34.652Z,83.40
2022-10-14T04:44:37.837Z,84.47
2022-10-14T04:47:43.837Z,84.28
2022-10-14T04:50:53.424Z,85.05
2022-10-14T04:54:10.162Z,84.80
2022-10-14T04:57:26.016Z,86.23
2022-10-14T05:00:28.695Z,86.49
2022-10-14T05:03:38.457Z,86.61
2022-10-14T05:06:41.184Z,86.66
2022-10-14T05:09:50.369Z,86.48
2022-10-14T05:13:03.261Z,86.74
2022-10-14T05:16:10.613Z,86.36
2022-10-14T05:19:14.206Z,87.13
2022-10-14T05:22:25.273Z,86.48
2022-10-14T05:25:27.718Z,86.22
2022-10-14T05:28:31.231Z,86.43
2022-10-14T05:31:33.845Z,86.20
2022-10-14T05:34:43.289Z,87.10
2022-10-14T05:38:01.941Z,85.96
2022-10-14T05:41:11.094Z,86.10
2022-10-14T05:44:14.708Z,86.10
2022-10-14T05:47:18.070Z,86.08
2022-10-14T05:50:22.802Z,85.55
2022-10-14T05:53:25.977Z,86.37
2022-10-14T05:56:30.407Z,85.72
2022-10-14T05:59:40.586Z,84.91
2022-10-14T06:02:43.271Z,84.71
2022-10-14T06:05:49.009Z,84.17
2022-10-14T06:08:51.606Z,84.25
2022-10-14T06:11:55.738Z,83.65
2022-10-14T06:14:58.436Z,84.06
2022-10-14T06:18:00.923Z,83.56
2022-10-14T06:21:03.977Z,83.37
2022-10-14T06:24:06.873Z,83.40
2022-10-14T06:27:09.483Z,83.68
2022-10-14T06:30:12.583Z,83.84
2022-10-14T06:33:14.997Z,82.85
2022-10-14T06:36:17.486Z,82.91
2022-10-14T06:39:19.930Z,82.39
2022-10-14T06:42:22.575Z,82.11
2022-10-14T06:45:26.102Z,81.61
2022-10-14T06:48:28.785Z,82.08
2022-10-14T06:51:31.218Z,83.17
2022-10-14T06:54:38.901Z,83.62
2022-10-14T06:57:41.999Z,82.53
2022-10-14T07:00:48.010Z,80.82
2022-10-14T07:03:54.190Z,81.37
2022-10-14T07:06:59.036Z,81.34
2022-10-14T07:10:01.459Z,81.54
2022-10-14T07:13:04.116Z,81.19
2022-10-14T07:16:06.957Z,81.58
2022-10-14T07:19:09.729Z,81.24
2022-10-14T07:22:12.574Z,80.74
2022-10-14T07:25:15.112Z,79.67
2022-10-14T07:28:17.619Z,79.48
2022-10-14T07:31:20.169Z,78.79
2022-10-14T07:34:22.666Z,78.61
2022-10-14T07:37:25.438Z,79.06
2022-10-14T07:40:28.165Z,79.39
2022-10-14T07:43:32.218Z,78.74
2022-10-14T07:46:39.515Z,78.42
2022-10-14T07:49:41.875Z,78.29
2022-10-14T07:52:44.491Z,78.48
2022-10-14T07:55:52.093Z,78.48
2022-10-14T07:58:55.589Z,78.75
2022-10-14T08:01:58.028Z,78.61
2022-10-14T08:05:25.428Z,78.02
2022-10-14T08:08:24.308Z,77.98
2022-10-14T08:11:28.069Z,77.71
2022-10-14T08:14:30.412Z,76.45
2022-10-14T08:17:33.157Z,75.82
2022-10-14T08:20:35.770Z,75.91
2022-10-14T08:23:41.330Z,75.70
2022-10-14T08:26:54.689Z,75.21
2022-10-14T08:29:57.546Z,75.26
2022-10-14T08:33:00.183Z,72.96
2022-10-14T08:36:02.730Z,73.85
2022-10-14T08:39:06.437Z,74.75
2022-10-14T08:42:39.585Z,73.57
2022-10-14T08:45:54.495Z,73.28
2022-10-14T08:49:05.644Z,71.86
2022-10-14T08:52:12.750Z,73.33
2022-10-14T08:55:25.905Z,73.08
2022-10-14T08:58:34.510Z,72.38
2022-10-14T09:01:44.814Z,71.83
2022-10-14T09:04:47.223Z,71.58
2022-10-14T09:10:59.177Z,70.13
2022-10-14T09:14:02.792Z,69.51
2022-10-14T09:20:24.720Z,69.59
2022-10-14T09:23:27.742Z,69.75
2022-10-14T09:26:39.500Z,70.42
2022-10-14T09:29:41.860Z,69.46
2022-10-14T09:32:51.012Z,69.89
2022-10-14T09:35:53.466Z,69.62
2022-10-14T09:38:56.568Z,69.54
2022-10-14T09:41:59.664Z,69.05
2022-10-14T09:48:40.050Z,69.29
2022-10-14T09:51:43.242Z,70.45
2022-10-14T09:54:51.947Z,69.39
2022-10-14T09:58:08.746Z,68.30
2022-10-14T10:01:25.796Z,69.01
2022-10-14T10:04:42.893Z,68.43
2022-10-14T10:08:01.499Z,67.96
2022-10-14T10:11:13.723Z,66.34
2022-10-14T10:14:23.271Z,65.90
2022-10-14T10:17:27.678Z,65.34
2022-10-14T10:20:33.957Z,63.57
2022-10-14T10:23:36.717Z,63.67
2022-10-14T10:26:39.196Z,64.09
2022-10-14T10:29:41.763Z,64.66
2022-10-14T10:32:50.525Z,64.22
2022-10-14T10:35:56.114Z,63.04
2022-10-14T10:39:30.123Z,62.17
2022-10-14T10:42:39.462Z,61.67
2022-10-14T10:46:12.914Z,61.51
2022-10-14T10:49:18.911Z,61.78
2022-10-14T10:52:21.785Z,61.69
2022-10-14T10:55:27.690Z,62.26
2022-10-14T11:02:40.672Z,61.84
2022-10-14T11:05:46.088Z,60.44
2022-10-14T11:09:22.051Z,60.39
2022-10-14T11:12:33.480Z,59.90
2022-10-14T11:15:50.825Z,60.46
2022-10-14T11:19:02.891Z,60.29
2022-10-14T11:22:28.938Z,59.63
2022-10-14T11:25:44.531Z,57.92
2022-10-14T11:28:53.627Z,58.20
2022-10-14T11:32:07.483Z,58.04
2022-10-14T11:38:52.420Z,57.28
2022-10-14T11:42:13.856Z,57.12
2022-10-14T11:45:18.738Z,56.79
2022-10-14T11:48:29.754Z,57.35
2022-10-14T11:51:35.871Z,57.53
2022-10-14T11:54:38.430Z,56.72
2022-10-14T11:57:49.639Z,56.38
2022-10-14T12:00:54.185Z,55.83
2022-10-14T12:04:14.777Z,56.01
2022-10-14T12:07:19.978Z,56.58
2022-10-14T12:10:27.836Z,55.74
2022-10-14T12:13:41.746Z,55.97
2022-10-14T12:16:46.307Z,55.48
2022-10-14T12:19:49.758Z,54.82
2022-10-14T12:22:53.096Z,51.98
2022-10-14T12:26:18.105Z,50.55
2022-10-14T12:29:26.270Z,50.17
2022-10-14T12:32:33.150Z,48.54
2022-10-14T12:35:53.575Z,47.12
2022-10-14T12:39:18.009Z,48.87
2022-10-14T12:42:21.480Z,45.72
2022-10-14T12:45:26.787Z,44.35
2022-10-14T12:48:33.974Z,42.58
2022-10-14T12:51:36.348Z,41.78
2022-10-14T12:54:46.808Z,43.72
2022-10-14T12:58:03.296Z,42.69
2022-10-14T13:01:17.161Z,41.25
2022-10-14T13:04:20.999Z,39.61
2022-10-14T13:07:47.129Z,39.84
2022-10-14T13:10:58.964Z,38.81
2022-10-14T13:14:01.882Z,39.48
2022-10-14T13:17:29.674Z,38.62
2022-10-14T13:20:34.754Z,39.42
2022-10-14T13:23:41.613Z,40.14
2022-10-14T13:26:53.015Z,37.66
2022-10-14T13:29:55.536Z,37.70
2022-10-14T13:33:00.086Z,37.53
2022-10-14T13:36:05.659Z,37.34
2022-10-14T13:39:09.791Z,37.89
2022-10-14T13:42:32.236Z,37.01
2022-10-14T13:45:41.308Z,38.02
2022-10-14T13:48:47.402Z,37.56
2022-10-14T13:51:53.397Z,38.60
2022-10-14T13:55:14.468Z,37.14
2022-10-14T13:58:23.547Z,37.13
2022-10-14T14:01:33.527Z,37.17
2022-10-14T14:04:37.020Z,37.42
2022-10-14T14:11:16.264Z,38.56
2022-10-14T14:14:22.494Z,38.23
2022-10-14T14:17:32.895Z,37.30
2022-10-14T14:20:38.402Z,37.65
2022-10-14T14:23:57.808Z,39.37
2022-10-14T14:27:00.802Z,40.31
2022-10-14T14:30:08.397Z,39.90
2022-10-14T14:33:13.582Z,39.76
2022-10-14T14:36:27.963Z,39.09
2022-10-14T14:39:42.438Z,39.56
2022-10-14T14:42:46.680Z,40.11
2022-10-14T14:45:49.061Z,41.62
2022-10-14T14:48:54.590Z,41.50
2022-10-14T14:51:57.896Z,42.67
2022-10-14T14:55:00.288Z,44.04
2022-10-14T14:58:04.208Z,45.29
2022-10-14T15:01:07.010Z,46.42
2022-10-14T15:04:17.379Z,46.71
2022-10-14T15:07:21.936Z,47.18
2022-10-14T15:10:31.500Z,48.11
2022-10-14T15:13:39.745Z,49.01
2022-10-14T15:16:42.796Z,51.97
2022-10-14T15:19:45.442Z,54.00
2022-10-14T15:22:48.993Z,55.50
2022-10-14T15:26:00.010Z,57.19
2022-10-14T15:32:27.061Z,60.67
2022-10-14T15:35:29.818Z,61.58
2022-10-14T15:41:40.798Z,63.61
2022-10-14T15:44:43.201Z,64.48
2022-10-14T15:47:46.509Z,65.04
2022-10-14T15:50:49.035Z,65.34
2022-10-14T15:53:51.935Z,66.96
2022-10-14T15:59:59.128Z,67.72
2022-10-14T16:03:03.660Z,68.45
2022-10-14T16:06:06.296Z,68.36
2022-10-14T16:09:08.745Z,69.11
2022-10-14T16:12:13.350Z,69.24
2022-10-14T16:15:22.073Z,69.27
2022-10-14T16:18:24.841Z,69.71
2022-10-14T16:21:33.671Z,70.21
2022-10-14T16:24:35.982Z,70.71
2022-10-14T16:27:41.901Z,71.04
2022-10-14T16:30:48.662Z,70.98
2022-10-14T16:33:52.580Z,71.32
2022-10-14T16:36:55.336Z,71.93
2022-10-14T16:39:57.763Z,72.25
2022-10-14T16:43:00.227Z,72.89
2022-10-14T16:46:03.849Z,72.56
2022-10-14T16:49:07.226Z,74.38
2022-10-14T16:52:09.900Z,75.52
2022-10-14T16:55:12.352Z,76.31
2022-10-14T16:58:15.761Z,75.89
2022-10-14T17:01:18.162Z,75.55
2022-10-14T17:04:20.975Z,76.52
2022-10-14T17:07:27.050Z,75.43
2022-10-14T17:10:29.427Z,75.48
2022-10-14T17:13:31.897Z,75.96
2022-10-14T17:16:34.459Z,75.76
2022-10-14T17:19:37.176Z,76.37
2022-10-14T17:22:39.784Z,75.73
2022-10-14T17:25:44.322Z,76.90
2022-10-14T17:28:47.825Z,76.26
2022-10-14T17:31:50.472Z,76.34
2022-10-14T17:34:53.571Z,76.85
2022-10-14T17:37:56.129Z,76.49
2022-10-14T17:41:08.871Z,76.61
2022-10-14T17:44:11.669Z,77.34
2022-10-14T17:47:14.044Z,77.27
2022-10-14T17:50:17.066Z,78.49
2022-10-14T17:53:19.483Z,79.47
2022-10-14T17:56:21.892Z,77.88
2022-10-14T17:59:24.289Z,78.49
2022-10-14T18:02:28.207Z,77.92
2022-10-14T18:05:31.416Z,78.08
2022-10-14T18:08:33.860Z,79.49
2022-10-14T18:12:07.786Z,82.04
2022-10-14T18:15:05.680Z,82.16
2022-10-14T18:18:08.505Z,83.01
2022-10-14T18:21:10.934Z,82.94
2022-10-14T18:24:13.599Z,83.11
2022-10-14T18:27:16.048Z,83.11
2022-10-14T18:30:18.573Z,80.84
2022-10-14T18:33:20.899Z,81.70
2022-10-14T18:36:25.644Z,82.14
2022-10-14T18:39:28.128Z,81.84
2022-10-14T18:42:30.526Z,81.78
2022-10-14T18:45:34.824Z,82.99
2022-10-14T18:48:37.344Z,82.02
2022-10-14T18:51:40.496Z,81.84
2022-10-14T18:54:42.982Z,83.60
2022-10-14T18:57:46.066Z,81.89
2022-10-14T19:00:48.562Z,82.02
2022-10-14T19:03:51.322Z,81.56
2022-10-14T19:06:54.224Z,81.35
2022-10-14T19:09:57.893Z,81.38
2022-10-14T19:13:00.498Z,82.07
2022-10-14T19:16:17.149Z,82.58
2022-10-14T19:19:20.322Z,83.51
2022-10-14T19:22:23.080Z,84.11
2022-10-14T19:25:25.753Z,83.82
2022-10-14T19:28:28.237Z,83.53
2022-10-14T19:31:33.022Z,84.11
2022-10-14T19:34:35.410Z,84.63
2022-10-14T19:37:37.762Z,85.94
2022-10-14T19:40:40.519Z,86.04
2022-10-14T19:43:42.859Z,85.87
2022-10-14T19:46:45.490Z,85.86
2022-10-14T19:49:47.842Z,85.51
2022-10-14T19:52:50.299Z,84.12
2022-10-14T19:55:52.746Z,82.53
2022-10-14T19:58:57.393Z,83.04
2022-10-14T20:01:59.770Z,84.08
2022-10-14T20:05:02.095Z,84.35
2022-10-14T20:08:04.559Z,84.80
2022-10-14T20:11:09.299Z,84.68
2022-10-14T20:14:11.650Z,84.96
2022-10-14T20:17:14.142Z,85.26
2022-10-14T20:20:16.693Z,86.58
2022-10-14T20:23:19.716Z,86.47
2022-10-14T20:26:22.447Z,86.24
2022-10-14T20:29:24.972Z,84.93
2022-10-14T20:32:27.383Z,84.52
2022-10-14T20:38:38.135Z,85.90
2022-10-14T20:41:40.505Z,85.40
2022-10-14T20:44:43.196Z,85.15
2022-10-14T20:47:53.272Z,84.45
2022-10-14T20:50:56.692Z,85.27
2022-10-14T20:54:03.094Z,85.25
2022-10-14T20:57:06.646Z,86.21
2022-10-14T21:00:09.933Z,87.08
2022-10-14T21:03:12.473Z,87.34
2022-10-14T21:06:20.500Z,86.29
2022-10-14T21:09:22.831Z,87.62
2022-10-14T21:12:26.217Z,86.51
2022-10-14T21:15:28.872Z,89.10
2022-10-14T21:18:31.194Z,87.60
2022-10-14T21:21:36.994Z,89.75
2022-10-14T21:24:47.569Z,88.77
2022-10-14T21:27:49.985Z,88.36
2022-10-14T21:30:52.295Z,85.90
2022-10-14T21:33:58.005Z,85.37
2022-10-14T21:37:03.714Z,85.69
2022-10-14T21:40:06.907Z,85.64
2022-10-14T21:43:09.444Z,85.35
2022-10-14T21:46:13.963Z,84.78
2022-10-14T21:49:16.630Z,84.58
2022-10-14T21:52:19.025Z,84.84
2022-10-14T21:55:21.389Z,84.61
2022-10-14T21:58:24.134Z,84.62
2022-10-14T22:01:28.717Z,85.16
2022-10-14T22:04:34.508Z,83.81
2022-10-14T22:07:39.892Z,84.61
2022-10-14T22:10:43.591Z,86.64
2022-10-14T22:13:46.720Z,86.83
2022-10-14T22:16:49.068Z,85.75
2022-10-14T22:19:51.401Z,84.60
2022-10-14T22:22:54.450Z,84.67
2022-10-14T22:26:02.545Z,84.96
2022-10-14T22:29:08.128Z,86.69
2022-10-14T22:32:10.439Z,86.72
2022-10-14T22:35:12.797Z,87.23
2022-10-14T22:38:15.255Z,85.04
2022-10-14T22:41:18.571Z,85.03
2022-10-14T22:44:20.900Z,85.41
2022-10-14T22:47:23.611Z,85.40
2022-10-14T22:50:26.275Z,85.59
2022-10-14T22:53:29.242Z,85.64
2022-10-14T22:56:32.158Z,86.17
2022-10-14T22:59:34.626Z,85.57
2022-10-14T23:02:37.094Z,86.23
2022-10-14T23:05:39.934Z,87.06
2022-10-14T23:08:42.400Z,87.81
2022-10-14T23:11:44.875Z,86.36
2022-10-14T23:14:47.289Z,87.58
2022-10-14T23:17:49.606Z,88.55
2022-10-14T23:20:52.597Z,87.96
2022-10-14T23:23:59.865Z,87.32
2022-10-14T23:27:02.309Z,86.93
2022-10-14T23:30:06.008Z,86.22
2022-10-14T23:33:10.849Z,86.42
2022-10-14T23:36:14.129Z,86.63
2022-10-14T23:39:16.592Z,86.90
2022-10-14T23:42:19.089Z,86.91
2022-10-14T23:45:21.541Z,86.76
2022-10-14T23:48:24.146Z,86.37
2022-10-14T23:51:26.501Z,87.30
2022-10-14T23:54:28.833Z,87.56
2022-10-14T23:57:31.213Z,87.87
